Prescott, AR (71857)

7:33 AM CST on November 23, 2014 (GMT -0600)
HopePrescott.com Hope Office | Change Station
CLOSE
Current Station
Personal Weather Station
Location: Hope, AR
Elevation: 357 ft
Nearby Weather Stations
Active Advisory: Lake Wind Advisory

Elev 357 ft 33.66 °N, 93.59 °W | Updated 9 seconds ago

Rain
Rain
61.0 °F
Feels Like 61.0 °F
N
0.0
Wind Variable Wind from SE
Gusts 2.2 mph

Today
High -- | Low -- °F
--% Chance of Precip.
Yesterday
High -- | Low -- °F
Precip. -- in
6:53 AM 5:06 PM
New Moon, 1% visible
Pressure 29.62 in
Visibility 4.0 miles
Clouds Overcast 500 ft
Dew Point 60 °F
Humidity 98%
Rainfall 0.33 in
Snow Depth Not available.
UV 0 out of 12
Pollen .40 out of 12
Air Quality Not available.
Flu Activity Not available.
SPECI KADF 231325Z AUTO 16005KT 4SM -RA BR OVC005 16/16 A2962 RMK AO2 P0002

More Conditions Fewer Conditions

Pressure 29.62 in
Visibility 4.0 miles
Clouds Overcast 500 ft
Dew Point 60 °F
Humidity 98%
Rainfall 0.33 in
Snow Depth Not available.
UV 0 out of 12
Pollen .40 out of 12
Air Quality Not available.
Flu Activity Not available.
SPECI KADF 231325Z AUTO 16005KT 4SM -RA BR OVC005 16/16 A2962 RMK AO2 P0002

More Conditions Fewer Conditions

Nowcast | as of 6:49 am CST on November 23, 2014

Through 10am CST...rain with isolated embedded thunderstorms will move to the northeast across... southwest Arkansas...northeast Texas and northwest Louisiana with rainfall amounts of one quarter to one half inch per hour. Be alert for pounding of water on roads and in low lying and poor drainage areas.

×

10-Day Weather Forecast

Almanac

Astronomy

Nov. 23, 2014 Rise Set
Actual Time
Civil Twilight
Nautical Twilight
Astronomical Twilight
Moon
Length of Visible Light
Length of Day
Tomorrow will be .
, % of the Moon is Illuminated

Today's Extremes

State Highs State Lows

Community

WunderPhotos

Upload Photos

1,773,057 photos uploaded!

WunderBlogs® & News

Nearby

Air Quality

  Air Quality AQ Index Pollutant
Not available.

Snow Depth

Station Depth Elevation

Earthquake Activity

City Distance Mag. Time & Date
Minimum magnitude displayed is 2.5.

Coastal Water Temperatures

Place Temperature

Nearby Weather Stations